Time;durP1;ratioP1;P1;durP2;ratioP2;P2;SDS_P1;SDS_P2;PMS_P1;PMS_P2;Temp;Humidity;BMP_temperature;BMP_pressure;BME280_temperature;BME280_humidity;BME280_pressure;Samples;Min_cycle;Max_cycle;Signal;HPM_P1;HPM_P2
2024/03/24 00:00:47;;;;;;;;;1.00;1.00;;;;;9.85;100.00;100716.97;2097138;28;46804;-67
2024/03/24 00:01:47;;;;;;;;;1.00;1.00;;;;;9.85;100.00;100714.31;2101646;28;46095;-66
2024/03/24 00:02:47;;;;;;;;;1.00;1.00;;;;;9.84;100.00;100717.00;2100323;28;46783;-66
2024/03/24 00:03:48;;;;;;;;;2.33;1.67;;;;;9.83;100.00;100716.13;2099190;28;45865;-67
2024/03/24 00:04:48;;;;;;;;;5.00;3.00;;;;;9.83;100.00;100712.59;2103670;28;46977;-66
2024/03/24 00:05:49;;;;;;;;;4.25;4.25;;;;;9.83;100.00;100717.91;2098092;28;46920;-66
2024/03/24 00:06:49;;;;;;;;;7.33;5.00;;;;;9.83;100.00;100713.47;2101859;28;46183;-66
2024/03/24 00:07:49;;;;;;;;;2.00;2.00;;;;;9.82;100.00;100708.19;2104396;28;46439;-66
2024/03/24 00:08:51;;;;;;;;;1.00;1.00;;;;;9.82;100.00;100709.06;2096731;27;46878;-67
2024/03/24 00:09:51;;;;;;;;;2.00;2.00;;;;;9.82;100.00;100716.16;2104192;27;46370;-66
2024/03/24 00:10:52;;;;;;;;;2.33;2.33;;;;;9.81;100.00;100711.75;2101012;27;46689;-66
2024/03/24 00:11:52;;;;;;;;;2.00;2.00;;;;;9.80;100.00;100717.97;2101308;28;46311;-66
2024/03/24 00:12:53;;;;;;;;;9.33;2.67;;;;;9.79;100.00;100709.13;2103895;27;46830;-66
2024/03/24 00:13:53;;;;;;;;;2.00;2.00;;;;;9.78;100.00;100712.66;2104279;28;46868;-66
2024/03/24 00:14:54;;;;;;;;;2.33;1.00;;;;;9.78;100.00;100711.78;2102683;27;46191;-67
2024/03/24 00:15:55;;;;;;;;;2.00;2.00;;;;;9.77;100.00;100715.34;2100663;28;45501;-66
2024/03/24 00:16:55;;;;;;;;;1.33;1.33;;;;;9.74;100.00;100710.97;2104001;28;46938;-66
2024/03/24 00:17:55;;;;;;;;;2.00;0.67;;;;;9.71;100.00;100711.91;2104125;28;47026;-67
2024/03/24 00:18:56;;;;;;;;;1.00;1.00;;;;;9.70;100.00;100710.16;2100454;28;45159;-66
2024/03/24 00:19:56;;;;;;;;;4.00;2.00;;;;;9.72;100.00;100713.66;2103779;27;45888;-66
2024/03/24 00:20:57;;;;;;;;;1.33;1.33;;;;;9.72;100.00;100718.09;2104054;28;46655;-67
2024/03/24 00:21:57;;;;;;;;;1.00;1.00;;;;;9.71;100.00;100717.22;2102096;27;46498;-66
2024/03/24 00:22:57;;;;;;;;;1.00;1.00;;;;;9.70;100.00;100718.13;2098903;28;46373;-66
2024/03/24 00:23:58;;;;;;;;;1.67;1.00;;;;;9.70;100.00;100714.59;2104305;28;46752;-67
2024/03/24 00:24:58;;;;;;;;;2.00;2.00;;;;;9.69;100.00;100716.38;2104595;27;45463;-66
2024/03/24 00:25:58;;;;;;;;;2.00;2.00;;;;;9.70;100.00;100719.91;2101717;27;46501;-65
2024/03/24 00:27:00;;;;;;;;;0.00;0.00;;;;;9.70;100.00;100720.78;2095919;28;46203;-67
2024/03/24 00:28:00;;;;;;;;;2.50;1.00;;;;;9.69;100.00;100723.44;2086338;28;46510;-66
2024/03/24 00:29:01;;;;;;;;;1.00;1.00;;;;;9.68;100.00;100719.94;2082873;28;46297;-66
2024/03/24 00:30:01;;;;;;;;;1.67;1.67;;;;;9.68;100.00;100719.94;2103874;28;46347;-66
2024/03/24 00:31:01;;;;;;;;;1.00;1.00;;;;;9.68;100.00;100711.97;2100764;27;46870;-69
2024/03/24 00:32:03;;;;;;;;;1.00;1.00;;;;;9.70;100.00;100723.41;2103624;28;46326;-67
2024/03/24 00:33:04;;;;;;;;;2.00;2.00;;;;;9.71;100.00;100722.50;2103189;27;47035;-66
2024/03/24 00:34:04;;;;;;;;;1.67;1.67;;;;;9.72;100.00;100720.75;2101728;28;45757;-67
2024/03/24 00:35:05;;;;;;;;;1.33;1.33;;;;;9.72;100.00;100726.03;2103837;28;46957;-67
2024/03/24 00:36:06;;;;;;;;;2.00;0.75;;;;;9.71;100.00;100719.00;2097931;28;45702;-67
2024/03/24 00:37:06;;;;;;;;;1.00;1.00;;;;;9.72;100.00;100723.38;2099434;28;46305;-65
2024/03/24 00:38:07;;;;;;;;;1.00;1.00;;;;;9.73;100.00;100719.84;2095974;28;46612;-66
2024/03/24 00:39:07;;;;;;;;;1.00;1.00;;;;;9.71;100.00;100714.56;2101758;28;47133;-66
2024/03/24 00:40:09;;;;;;;;;1.00;1.00;;;;;9.70;100.00;100726.06;2100989;28;46220;-66
2024/03/24 00:41:09;;;;;;;;;1.50;1.00;;;;;9.69;100.00;100718.16;2104208;27;46708;-66
2024/03/24 00:42:10;;;;;;;;;0.00;0.00;;;;;9.67;100.00;100719.97;2103625;28;45513;-65
2024/03/24 00:43:10;;;;;;;;;2.00;1.00;;;;;9.65;100.00;100719.09;2104193;27;46945;-66
2024/03/24 00:44:10;;;;;;;;;1.00;1.00;;;;;9.64;100.00;100714.69;2104013;28;46653;-66
2024/03/24 00:45:11;;;;;;;;;0.00;0.00;;;;;9.62;100.00;100704.13;2104243;28;46077;-66
2024/03/24 00:46:11;;;;;;;;;2.33;1.00;;;;;9.61;100.00;100704.16;2104897;28;45513;-67
2024/03/24 00:47:11;;;;;;;;;1.00;1.00;;;;;9.61;100.00;100714.75;2103222;28;45528;-66
2024/03/24 00:48:12;;;;;;;;;1.00;1.00;;;;;9.61;100.00;100712.09;2102359;27;46898;-66
2024/03/24 00:49:12;;;;;;;;;1.67;1.00;;;;;9.59;100.00;100709.47;2100964;28;46452;-66
2024/03/24 00:50:14;;;;;;;;;1.33;1.33;;;;;9.59;100.00;100703.31;2097763;28;46901;-66
2024/03/24 00:51:14;;;;;;;;;0.25;0.25;;;;;9.58;100.00;100707.75;2096157;28;46410;-67
2024/03/24 00:52:14;;;;;;;;;1.33;1.00;;;;;9.59;100.00;100708.63;2104036;28;46527;-67
2024/03/24 00:53:15;;;;;;;;;1.00;1.00;;;;;9.58;100.00;100706.88;2103305;27;46700;-67
2024/03/24 00:54:15;;;;;;;;;0.00;0.00;;;;;9.57;100.00;100700.69;2096166;28;45306;-66
2024/03/24 00:55:15;;;;;;;;;1.00;1.00;;;;;9.58;100.00;100702.44;2095230;28;47091;-66
2024/03/24 00:56:16;;;;;;;;;2.67;1.00;;;;;9.56;100.00;100701.59;2103482;28;46103;-66
2024/03/24 00:57:16;;;;;;;;;0.67;0.67;;;;;9.58;100.00;100701.56;2101569;27;46689;-66
2024/03/24 00:58:17;;;;;;;;;0.33;0.33;;;;;9.58;100.00;100704.22;2111336;27;46658;-66
2024/03/24 00:59:18;;;;;;;;;1.00;1.00;;;;;9.56;100.00;100701.59;2112409;27;46455;-66
2024/03/24 01:00:18;;;;;;;;;2.33;0.00;;;;;9.56;100.00;100696.31;2104182;28;45551;-66
2024/03/24 01:01:20;;;;;;;;;2.00;2.00;;;;;9.54;100.00;100703.41;2104509;27;45572;-66
2024/03/24 01:02:20;;;;;;;;;1.00;1.00;;;;;9.55;100.00;100705.16;2103490;27;46446;-66
2024/03/24 01:03:20;;;;;;;;;0.67;0.67;;;;;9.55;100.00;100704.28;2104171;27;47304;-67
2024/03/24 01:04:21;;;;;;;;;0.67;0.67;;;;;9.53;100.00;100699.00;2104660;27;45464;-66
2024/03/24 01:05:21;;;;;;;;;1.67;1.33;;;;;9.52;100.00;100691.94;2100367;27;46639;-66
2024/03/24 01:06:21;;;;;;;;;2.00;0.67;;;;;9.53;100.00;100700.75;2099796;27;46418;-66
2024/03/24 01:07:22;;;;;;;;;1.00;1.00;;;;;9.54;100.00;100694.59;2096699;28;46669;-67
2024/03/24 01:08:22;;;;;;;;;1.00;1.00;;;;;9.54;100.00;100691.94;2102443;28;46423;-66
2024/03/24 01:09:22;;;;;;;;;2.00;1.00;;;;;9.54;100.00;100695.47;2103878;28;46592;-66
2024/03/24 01:10:23;;;;;;;;;2.00;1.00;;;;;9.56;100.00;100701.59;2100683;27;46427;-67
2024/03/24 01:11:23;;;;;;;;;1.00;1.00;;;;;9.57;100.00;100698.06;2099399;28;46330;-67
2024/03/24 01:12:24;;;;;;;;;1.00;1.00;;;;;9.59;100.00;100690.06;2099336;28;46741;-66
2024/03/24 01:13:24;;;;;;;;;2.50;2.50;;;;;9.57;100.00;100687.44;2103095;27;45968;-66
2024/03/24 01:14:24;;;;;;;;;2.00;1.00;;;;;9.57;100.00;100690.09;2105468;27;46599;-66
2024/03/24 01:15:25;;;;;;;;;2.67;2.00;;;;;9.56;100.00;100690.13;2101250;28;46616;-66
2024/03/24 01:16:25;;;;;;;;;1.00;1.00;;;;;9.54;100.00;100687.50;2095397;28;46610;-66
2024/03/24 01:17:26;;;;;;;;;1.00;1.00;;;;;9.54;100.00;100687.50;2095950;28;46061;-64
2024/03/24 01:18:26;;;;;;;;;1.00;1.00;;;;;9.55;100.00;100685.75;2103138;28;47092;-64
2024/03/24 01:19:26;;;;;;;;;1.00;1.00;;;;;9.54;100.00;100684.00;2100369;27;46441;-66
2024/03/24 01:20:27;;;;;;;;;2.00;0.00;;;;;9.54;100.00;100684.00;2102748;28;47023;-66
2024/03/24 01:21:27;;;;;;;;;2.00;0.33;;;;;9.53;100.00;100675.16;2105633;28;46474;-67
2024/03/24 01:22:29;;;;;;;;;2.00;2.00;;;;;9.54;100.00;100668.09;2105240;28;46028;-67
2024/03/24 01:23:29;;;;;;;;;1.00;1.00;;;;;9.52;100.00;100669.88;2098873;27;46054;-66
2024/03/24 01:24:29;;;;;;;;;1.00;1.00;;;;;9.51;100.00;100671.66;2105009;28;46476;-66
2024/03/24 01:25:31;;;;;;;;;1.00;1.00;;;;;9.51;100.00;100679.59;2105577;28;46061;-66
2024/03/24 01:26:31;;;;;;;;;2.00;1.25;;;;;9.50;100.00;100669.91;2104396;27;45972;-66
2024/03/24 01:27:32;;;;;;;;;1.00;1.00;;;;;9.50;100.00;100675.19;2105177;27;46308;-66
2024/03/24 01:28:32;;;;;;;;;2.00;1.33;;;;;9.50;100.00;100684.94;2105463;27;46305;-66
2024/03/24 01:29:32;;;;;;;;;3.00;1.67;;;;;9.49;100.00;100676.09;2104509;27;45874;-65
2024/03/24 01:30:33;;;;;;;;;1.00;1.00;;;;;9.52;100.00;100672.53;2106364;27;45917;-66
2024/03/24 01:31:33;;;;;;;;;1.00;0.00;;;;;9.53;100.00;100676.91;2098590;27;46264;-65
2024/03/24 01:32:33;;;;;;;;;1.00;1.00;;;;;9.54;100.00;100670.75;2102843;28;45906;-64
2024/03/24 01:33:34;;;;;;;;;2.00;1.00;;;;;9.54;100.00;100674.25;2101482;28;46394;-65
2024/03/24 01:34:34;;;;;;;;;1.00;1.00;;;;;9.54;100.00;100673.41;2097816;28;46466;-67
2024/03/24 01:35:35;;;;;;;;;1.00;1.00;;;;;9.54;100.00;100676.91;2104490;28;46324;-65
2024/03/24 01:36:35;;;;;;;;;1.00;1.00;;;;;9.54;100.00;100676.91;2105138;27;46463;-65
2024/03/24 01:37:36;;;;;;;;;1.00;0.00;;;;;9.56;100.00;100671.59;2105385;27;45596;-64
2024/03/24 01:38:37;;;;;;;;;3.00;1.00;;;;;9.56;100.00;100675.09;2103681;27;48311;-64
2024/03/24 01:39:37;;;;;;;;;1.00;1.00;;;;;9.56;100.00;100680.41;2098980;27;46921;-64
2024/03/24 01:40:37;;;;;;;;;1.00;1.00;;;;;9.58;100.00;100681.25;2101329;27;46637;-66
2024/03/24 01:41:38;;;;;;;;;2.00;2.00;;;;;9.56;100.00;100675.09;2099143;28;45894;-66
2024/03/24 01:42:38;;;;;;;;;1.00;1.00;;;;;9.58;100.00;100678.59;2104568;28;46181;-66
2024/03/24 01:43:39;;;;;;;;;1.00;0.00;;;;;9.59;100.00;100674.16;2105347;27;46376;-67
2024/03/24 01:44:39;;;;;;;;;1.00;1.00;;;;;9.59;100.00;100669.75;2102333;28;46336;-65
2024/03/24 01:45:41;;;;;;;;;1.67;1.67;;;;;9.59;100.00;100669.75;2103785;28;46383;-63
2024/03/24 01:46:41;;;;;;;;;1.00;1.00;;;;;9.58;100.00;100662.69;2105345;27;46554;-67
2024/03/24 01:47:41;;;;;;;;;1.67;1.67;;;;;9.60;100.00;100671.50;2105045;27;46869;-66
2024/03/24 01:48:42;;;;;;;;;3.00;1.00;;;;;9.59;100.00;100669.75;2103232;27;46326;-66
2024/03/24 01:49:42;;;;;;;;;1.00;1.00;;;;;9.58;100.00;100669.78;2106159;28;46802;-66
2024/03/24 01:50:43;;;;;;;;;2.00;1.00;;;;;9.57;100.00;100666.25;2104277;27;47092;-66
2024/03/24 01:51:43;;;;;;;;;0.67;0.00;;;;;9.58;100.00;100667.13;2101267;28;47330;-66
2024/03/24 01:52:44;;;;;;;;;0.67;0.67;;;;;9.58;100.00;100660.06;2104369;28;46699;-65
2024/03/24 01:53:46;;;;;;;;;1.00;1.00;;;;;9.59;100.00;100658.28;2104154;28;45764;-66
2024/03/24 01:54:46;;;;;;;;;1.00;1.00;;;;;9.59;100.00;100666.22;2105030;27;46864;-67
2024/03/24 01:55:47;;;;;;;;;1.00;1.00;;;;;9.58;100.00;100669.78;2097777;28;46813;-65
2024/03/24 01:56:47;;;;;;;;;1.00;1.00;;;;;9.56;100.00;100663.63;2102959;28;45933;-65
2024/03/24 01:57:49;;;;;;;;;1.00;1.00;;;;;9.54;100.00;100655.72;2098313;28;46169;-66
2024/03/24 01:58:49;;;;;;;;;1.25;1.25;;;;;9.53;100.00;100655.72;2097715;28;45849;-65
2024/03/24 01:59:51;;;;;;;;;1.00;1.00;;;;;9.52;100.00;100654.84;2100749;28;46327;-66
2024/03/24 02:00:51;;;;;;;;;1.00;1.00;;;;;9.50;100.00;100659.31;2105426;27;46296;-65
2024/03/24 02:01:52;;;;;;;;;2.67;1.00;;;;;9.50;100.00;100659.31;2099246;28;46677;-66
2024/03/24 02:02:52;;;;;;;;;1.33;1.33;;;;;9.49;100.00;100662.88;2104564;27;46472;-66
2024/03/24 02:03:52;;;;;;;;;3.00;1.33;;;;;9.52;100.00;100653.97;2106003;28;46316;-66
2024/03/24 02:04:53;;;;;;;;;1.00;1.00;;;;;9.52;100.00;100659.28;2101811;28;46425;-66
2024/03/24 02:05:53;;;;;;;;;2.00;1.00;;;;;9.47;100.00;100654.06;2104559;28;46543;-65
2024/03/24 02:06:53;;;;;;;;;2.00;1.00;;;;;9.46;100.00;100651.47;2099378;27;46431;-66
2024/03/24 02:07:54;;;;;;;;;2.33;2.33;;;;;9.44;100.00;100651.50;2105394;27;46282;-65
2024/03/24 02:08:54;;;;;;;;;1.00;1.00;;;;;9.42;100.00;100655.94;2097564;27;46852;-67
2024/03/24 02:09:55;;;;;;;;;1.33;1.00;;;;;9.41;100.00;100656.84;2103530;27;46467;-67
2024/03/24 02:10:56;;;;;;;;;2.00;1.00;;;;;9.39;100.00;100653.31;2104610;28;46267;-65
2024/03/24 02:11:56;;;;;;;;;1.00;1.00;;;;;9.39;100.00;100656.84;2098744;27;46810;-67
2024/03/24 02:12:56;;;;;;;;;1.00;1.00;;;;;9.41;100.00;100659.50;2097540;27;46677;-65
2024/03/24 02:13:58;;;;;;;;;1.00;1.00;;;;;9.40;100.00;100650.69;2105357;28;46336;-66
2024/03/24 02:14:58;;;;;;;;;0.25;0.00;;;;;9.41;100.00;100655.06;2104609;28;46532;-66
2024/03/24 02:15:59;;;;;;;;;1.00;1.00;;;;;9.41;100.00;100656.84;2105087;28;46215;-65
2024/03/24 02:17:00;;;;;;;;;3.00;3.00;;;;;9.41;100.00;100662.16;2101456;27;46344;-66
2024/03/24 02:18:00;;;;;;;;;2.33;1.33;;;;;9.41;100.00;100665.66;2105146;27;46168;-65
2024/03/24 02:19:03;;;;;;;;;1.00;1.00;;;;;9.43;100.00;100663.84;2104188;28;46842;-67
2024/03/24 02:20:04;;;;;;;;;2.75;1.50;;;;;9.44;100.00;100659.44;2105097;28;45718;-65
2024/03/24 02:21:04;;;;;;;;;1.00;1.00;;;;;9.44;100.00;100662.09;2105087;27;46347;-65
2024/03/24 02:22:05;;;;;;;;;2.67;2.00;;;;;9.44;100.00;100657.66;2102991;28;46259;-64
2024/03/24 02:23:05;;;;;;;;;5.00;1.67;;;;;9.44;100.00;100668.25;2105751;28;45736;-65
2024/03/24 02:24:06;;;;;;;;;2.67;1.00;;;;;9.43;100.00;100657.69;2099968;28;47252;-66
2024/03/24 02:25:06;;;;;;;;;1.00;1.00;;;;;9.44;100.00;100654.13;2104695;28;45838;-65
2024/03/24 02:26:07;;;;;;;;;2.67;1.00;;;;;9.44;100.00;100654.13;2103703;27;45793;-65
2024/03/24 02:27:07;;;;;;;;;3.00;2.00;;;;;9.46;100.00;100656.75;2095568;28;46330;-65
2024/03/24 02:28:08;;;;;;;;;2.00;2.00;;;;;9.44;100.00;100647.06;2090912;28;45996;-66
2024/03/24 02:29:12;;;;;;;;;2.00;1.00;;;;;9.58;100.00;100648.59;2105745;28;46433;-65
2024/03/24 02:30:13;;;;;;;;;1.75;1.75;;;;;9.59;100.00;100658.28;2103850;27;46626;-66
2024/03/24 02:31:15;;;;;;;;;1.33;1.33;;;;;9.46;100.00;100656.75;2104085;27;45212;-65
2024/03/24 02:32:15;;;;;;;;;1.50;0.25;;;;;9.53;100.00;100655.72;2098253;28;46578;-66
2024/03/24 02:33:16;;;;;;;;;1.00;1.00;;;;;9.52;100.00;100653.97;2104316;28;46448;-67
2024/03/24 02:34:16;;;;;;;;;0.67;0.67;;;;;9.43;100.00;100650.63;2104404;28;46778;-66
2024/03/24 02:35:16;;;;;;;;;2.00;1.00;;;;;9.43;100.00;100645.31;2097215;27;47057;-67
2024/03/24 02:36:17;;;;;;;;;1.00;1.00;;;;;9.40;100.00;100652.41;2100008;28;46583;-65
2024/03/24 02:37:17;;;;;;;;;1.00;1.00;;;;;9.41;100.00;100654.19;2104642;28;46485;-66
2024/03/24 02:38:18;;;;;;;;;1.00;1.00;;;;;9.42;100.00;100650.66;2104898;27;46739;-65
2024/03/24 02:39:18;;;;;;;;;1.00;1.00;;;;;9.43;100.00;100647.09;2102644;28;46952;-66
2024/03/24 02:40:18;;;;;;;;;1.00;1.00;;;;;9.45;100.00;100653.22;2102518;28;47192;-66
2024/03/24 02:41:19;;;;;;;;;1.00;1.00;;;;;9.44;100.00;100647.06;2101549;28;46388;-65
2024/03/24 02:42:19;;;;;;;;;1.00;1.00;;;;;9.43;100.00;100642.66;2105431;27;45083;-65
2024/03/24 02:43:19;;;;;;;;;1.33;1.33;;;;;9.46;100.00;100647.03;2098650;27;46461;-65
2024/03/24 02:44:20;;;;;;;;;1.33;1.33;;;;;9.47;100.00;100645.25;2099390;28;45418;-67
2024/03/24 02:45:20;;;;;;;;;1.33;1.33;;;;;9.47;100.00;100650.56;2079275;28;46250;-66
2024/03/24 02:46:20;;;;;;;;;1.00;1.00;;;;;9.46;100.00;100657.63;2084402;28;45557;-66
2024/03/24 02:47:21;;;;;;;;;0.33;0.33;;;;;9.47;100.00;100653.19;2103624;28;45976;-65
2024/03/24 02:48:21;;;;;;;;;2.00;1.00;;;;;9.47;100.00;100656.72;2100215;28;46231;-66
2024/03/24 02:49:21;;;;;;;;;1.00;1.00;;;;;9.46;100.00;100654.09;2104992;27;46951;-66
2024/03/24 02:50:22;;;;;;;;;1.00;1.00;;;;;9.44;100.00;100652.34;2101884;28;46817;-65
2024/03/24 02:51:22;;;;;;;;;2.33;2.00;;;;;9.44;100.00;100648.84;2103224;28;46468;-66
2024/03/24 02:52:23;;;;;;;;;2.67;1.00;;;;;9.43;100.00;100655.03;2104393;27;45635;-66
2024/03/24 02:53:23;;;;;;;;;2.00;2.00;;;;;9.42;100.00;100648.88;2105088;27;46201;-66
2024/03/24 02:54:24;;;;;;;;;1.67;1.00;;;;;9.42;100.00;100646.22;2104326;27;46261;-66
2024/03/24 02:55:25;;;;;;;;;1.00;1.00;;;;;9.44;100.00;100646.19;2103385;28;47081;-65
2024/03/24 02:56:25;;;;;;;;;1.25;1.00;;;;;9.43;100.00;100652.38;2103953;28;45997;-65
2024/03/24 02:57:26;;;;;;;;;1.00;1.00;;;;;9.42;100.00;100646.22;2099661;28;45933;-66
2024/03/24 02:58:26;;;;;;;;;1.00;1.00;;;;;9.45;100.00;100658.53;2104954;27;46750;-65
2024/03/24 02:59:27;;;;;;;;;2.00;1.00;;;;;9.45;100.00;100653.22;2104131;27;46673;-65
2024/03/24 03:00:27;;;;;;;;;3.00;3.00;;;;;9.46;100.00;100651.47;2105080;28;46134;-65
2024/03/24 03:01:27;;;;;;;;;3.00;1.00;;;;;9.49;100.00;100648.75;2104430;27;45603;-66
2024/03/24 03:02:28;;;;;;;;;2.00;1.00;;;;;9.50;100.00;100655.78;2096969;28;46075;-65
2024/03/24 03:03:28;;;;;;;;;3.67;1.00;;;;;9.50;100.00;100651.34;2102787;28;47219;-66
2024/03/24 03:04:29;;;;;;;;;3.33;1.00;;;;;9.51;100.00;100646.94;2099068;28;46747;-64
2024/03/24 03:05:29;;;;;;;;;1.00;1.00;;;;;9.49;100.00;100652.25;2099522;28;46586;-66
2024/03/24 03:06:32;;;;;;;;;2.33;1.33;;;;;9.47;100.00;100643.47;2102641;27;46736;-67
2024/03/24 03:07:32;;;;;;;;;1.00;1.00;;;;;9.47;100.00;100647.91;2104528;28;45734;-64
2024/03/24 03:08:32;;;;;;;;;1.00;1.00;;;;;9.48;100.00;100647.88;2104573;27;47017;-65
2024/03/24 03:09:33;;;;;;;;;2.00;2.00;;;;;9.48;100.00;100644.34;2103217;28;46699;-65
2024/03/24 03:10:33;;;;;;;;;1.00;1.00;;;;;9.49;100.00;100646.97;2097274;28;46591;-65
2024/03/24 03:11:34;;;;;;;;;1.00;1.00;;;;;9.49;100.00;100640.78;2098179;28;46020;-66
2024/03/24 03:12:36;;;;;;;;;1.25;1.25;;;;;9.49;100.00;100643.44;2099874;28;46829;-65
2024/03/24 03:13:36;;;;;;;;;3.25;1.00;;;;;9.49;100.00;100646.09;2096519;28;46708;-65
2024/03/24 03:14:36;;;;;;;;;1.00;1.00;;;;;9.47;100.00;100646.13;2100754;28;46625;-65
2024/03/24 03:15:37;;;;;;;;;2.00;1.00;;;;;9.48;100.00;100645.22;2103718;27;46602;-65
2024/03/24 03:16:40;;;;;;;;;3.00;1.00;;;;;9.45;100.00;100647.94;2103517;27;46667;-66
2024/03/24 03:17:40;;;;;;;;;1.50;1.50;;;;;9.46;100.00;100648.81;2099755;28;46520;-65
2024/03/24 03:18:40;;;;;;;;;1.00;1.00;;;;;9.45;100.00;100640.00;2105177;27;45580;-65
2024/03/24 03:19:41;;;;;;;;;1.33;1.00;;;;;9.45;100.00;100642.63;2104704;28;46502;-64
2024/03/24 03:20:41;;;;;;;;;2.00;2.00;;;;;9.44;100.00;100647.06;2105120;27;46232;-66
2024/03/24 03:21:41;;;;;;;;;1.00;1.00;;;;;9.45;100.00;100642.63;2103565;28;45711;-66
2024/03/24 03:22:42;;;;;;;;;1.00;1.00;;;;;9.44;100.00;100640.91;2102068;27;46801;-65
2024/03/24 03:23:42;;;;;;;;;2.00;2.00;;;;;9.44;100.00;100643.53;2097298;28;46637;-65
2024/03/24 03:24:42;;;;;;;;;1.00;1.00;;;;;9.43;100.00;100647.97;2105375;27;46619;-67
2024/03/24 03:25:43;;;;;;;;;1.33;1.00;;;;;9.41;100.00;100641.81;2103829;27;45426;-66
2024/03/24 03:26:43;;;;;;;;;1.00;1.00;;;;;9.41;100.00;100648.91;2101997;28;46927;-66
2024/03/24 03:27:44;;;;;;;;;1.67;0.67;;;;;9.38;100.00;100646.28;2104753;28;46705;-66
2024/03/24 03:28:45;;;;;;;;;3.00;2.00;;;;;9.39;100.00;100640.94;2103224;27;47137;-66
2024/03/24 03:29:45;;;;;;;;;1.00;1.00;;;;;9.35;100.00;100639.28;2101626;28;46614;-66
2024/03/24 03:30:45;;;;;;;;;1.00;0.00;;;;;9.36;100.00;100640.16;2100643;28;46785;-66
2024/03/24 03:31:46;;;;;;;;;1.00;1.00;;;;;9.34;100.00;100647.25;2096967;28;46959;-67
2024/03/24 03:32:46;;;;;;;;;2.67;1.00;;;;;9.32;100.00;100638.47;2099006;28;46475;-66
2024/03/24 03:33:46;;;;;;;;;1.00;1.00;;;;;9.30;100.00;100643.78;2105122;27;46097;-67
2024/03/24 03:34:47;;;;;;;;;1.00;1.00;;;;;9.30;100.00;100645.56;2102862;28;45723;-66
2024/03/24 03:35:47;;;;;;;;;1.67;1.67;;;;;9.29;100.00;100647.34;2080316;28;46968;-66
2024/03/24 03:36:47;;;;;;;;;3.00;2.00;;;;;9.29;100.00;100651.75;2095577;28;46784;-67
2024/03/24 03:37:48;;;;;;;;;1.00;1.00;;;;;9.29;100.00;100642.03;2096959;27;47251;-66
2024/03/24 03:38:48;;;;;;;;;2.33;2.00;;;;;9.31;100.00;100653.47;2109470;27;46279;-66
2024/03/24 03:39:48;;;;;;;;;4.33;1.33;;;;;9.31;100.00;100642.88;2096952;28;46347;-65
2024/03/24 03:40:48;;;;;;;;;1.00;1.00;;;;;9.29;100.00;100644.69;2101241;28;46614;-66
2024/03/24 03:41:49;;;;;;;;;1.00;1.00;;;;;9.30;100.00;100645.56;2098317;28;46522;-65
2024/03/24 03:42:49;;;;;;;;;2.00;1.00;;;;;9.29;100.00;100646.47;2102113;27;46375;-66
2024/03/24 03:43:49;;;;;;;;;1.67;1.67;;;;;9.28;100.00;100648.25;2102757;28;46689;-66
2024/03/24 03:44:50;;;;;;;;;1.00;1.00;;;;;9.27;100.00;100651.75;2100790;27;46287;-67
2024/03/24 03:45:50;;;;;;;;;3.67;1.00;;;;;9.28;100.00;100645.59;2103206;28;46593;-64
2024/03/24 03:46:50;;;;;;;;;3.00;1.00;;;;;9.26;100.00;100644.72;2103415;28;46039;-65
2024/03/24 03:47:51;;;;;;;;;1.33;0.33;;;;;9.26;100.00;100647.38;2096541;28;46314;-65
2024/03/24 03:48:51;;;;;;;;;1.67;1.00;;;;;9.25;100.00;100647.41;2102509;28;45525;-66
2024/03/24 03:49:52;;;;;;;;;2.00;1.00;;;;;9.24;100.00;100638.59;2103103;28;46279;-66
2024/03/24 03:50:53;;;;;;;;;1.00;1.00;;;;;9.23;100.00;100638.63;2097930;28;46744;-65
2024/03/24 03:51:56;;;;;;;;;1.00;1.00;;;;;9.23;100.00;100646.56;2103459;28;46125;-66
2024/03/24 03:52:56;;;;;;;;;3.00;1.00;;;;;9.24;100.00;100645.66;2101618;28;46969;-68
2024/03/24 03:53:58;;;;;;;;;1.67;1.67;;;;;9.24;100.00;100640.38;2103859;28;46253;-67
2024/03/24 03:55:00;;;;;;;;;0.50;0.50;;;;;9.22;100.00;100640.38;2103253;27;46786;-66
2024/03/24 03:56:00;;;;;;;;;1.00;1.00;;;;;9.21;100.00;100643.94;2104809;27;46437;-67
2024/03/24 03:57:00;;;;;;;;;0.67;0.67;;;;;9.20;100.00;100644.84;2103306;28;46141;-65
2024/03/24 03:58:01;;;;;;;;;1.00;1.00;;;;;9.19;100.00;100647.53;2098992;28;46132;-65
2024/03/24 03:59:01;;;;;;;;;2.00;2.00;;;;;9.19;100.00;100643.09;2094772;28;46549;-66
2024/03/24 04:00:05;;;;;;;;;4.00;2.67;;;;;9.20;100.00;100647.50;2095431;28;46292;-65
2024/03/24 04:01:06;;;;;;;;;4.25;1.00;;;;;9.21;100.00;100651.88;2101789;28;46490;-65
2024/03/24 04:02:06;;;;;;;;;1.00;1.00;;;;;9.22;100.00;100643.03;2102498;27;46596;-66
2024/03/24 04:03:07;;;;;;;;;2.00;1.00;;;;;9.24;100.00;100649.19;2100087;28;46210;-66
2024/03/24 04:04:11;;;;;;;;;0.00;0.00;;;;;9.24;100.00;100648.31;2096368;28;45156;-66
2024/03/24 04:05:11;;;;;;;;;2.00;0.25;;;;;9.25;100.00;100647.41;2100586;28;46242;-65
2024/03/24 04:06:11;;;;;;;;;1.67;1.00;;;;;9.26;100.00;100654.44;2101450;28;46622;-65
2024/03/24 04:07:12;;;;;;;;;1.33;1.00;;;;;9.27;100.00;100642.94;2101849;27;46325;-66
2024/03/24 04:08:12;;;;;;;;;1.00;1.00;;;;;9.27;100.00;100642.94;2101911;28;45666;-65
2024/03/24 04:09:16;;;;;;;;;1.00;1.00;;;;;9.27;100.00;100643.81;2102128;28;46516;-65
2024/03/24 04:10:17;;;;;;;;;1.50;1.50;;;;;9.27;100.00;100650.88;2102594;27;45850;-66
2024/03/24 04:11:17;;;;;;;;;2.00;0.67;;;;;9.26;100.00;100641.19;2097830;27;46210;-65
2024/03/24 04:12:17;;;;;;;;;1.00;1.00;;;;;9.24;100.00;100635.94;2097588;28;46877;-65
2024/03/24 04:13:17;;;;;;;;;1.00;1.00;;;;;9.24;100.00;100643.00;2101451;28;46248;-66
2024/03/24 04:14:18;;;;;;;;;1.00;1.00;;;;;9.24;100.00;100645.66;2104251;28;46778;-66
2024/03/24 04:15:19;;;;;;;;;2.67;1.67;;;;;9.24;100.00;100645.66;2102670;27;46369;-65
2024/03/24 04:16:20;;;;;;;;;4.00;2.75;;;;;9.23;100.00;100643.91;2104021;27;47062;-65
2024/03/24 04:17:21;;;;;;;;;1.00;0.25;;;;;9.22;100.00;100650.97;2101736;27;46858;-66
2024/03/24 04:18:21;;;;;;;;;1.00;0.00;;;;;9.22;100.00;100643.03;2103734;27;46252;-65
2024/03/24 04:19:21;;;;;;;;;1.33;1.33;;;;;9.24;100.00;100650.94;2101555;28;46563;-65
2024/03/24 04:20:22;;;;;;;;;1.00;1.00;;;;;9.23;100.00;100650.06;2100035;28;46510;-65
2024/03/24 04:21:22;;;;;;;;;1.00;1.00;;;;;9.22;100.00;100639.53;2103869;27;47257;-65
2024/03/24 04:22:22;;;;;;;;;2.00;0.67;;;;;9.20;100.00;100646.63;2104220;28;46868;-64
2024/03/24 04:23:23;;;;;;;;;2.67;1.67;;;;;9.19;100.00;100653.69;2103215;27;46692;-65
2024/03/24 04:24:24;;;;;;;;;2.33;1.00;;;;;9.20;100.00;100657.22;2103870;27;46460;-66
2024/03/24 04:25:24;;;;;;;;;1.00;1.00;;;;;9.19;100.00;100650.16;2101405;27;46740;-65
2024/03/24 04:26:24;;;;;;;;;1.33;1.00;;;;;9.18;100.00;100654.59;2092004;28;46633;-67
2024/03/24 04:27:24;;;;;;;;;1.67;1.67;;;;;9.19;100.00;100656.34;2091548;28;46456;-66
2024/03/24 04:28:25;;;;;;;;;3.00;1.00;;;;;9.21;100.00;100657.19;2103260;28;46357;-65
2024/03/24 04:29:25;;;;;;;;;1.00;1.00;;;;;9.20;100.00;100655.44;2100645;28;46309;-66
2024/03/24 04:30:26;;;;;;;;;0.67;0.67;;;;;9.20;100.00;100655.44;2100678;28;47064;-64
2024/03/24 04:31:26;;;;;;;;;1.00;1.00;;;;;9.22;100.00;100663.34;2104274;27;46136;-67
2024/03/24 04:32:26;;;;;;;;;2.00;2.00;;;;;9.19;100.00;100656.34;2103322;27;46323;-65
2024/03/24 04:33:27;;;;;;;;;2.00;0.67;;;;;9.17;100.00;100663.44;2104260;27;46415;-66
2024/03/24 04:34:27;;;;;;;;;0.00;0.00;;;;;9.17;100.00;100659.91;2101350;27;45863;-65
2024/03/24 04:35:27;;;;;;;;;3.00;2.00;;;;;9.13;100.00;100656.41;2099008;28;46904;-65
2024/03/24 04:36:28;;;;;;;;;2.00;2.00;;;;;9.13;100.00;100657.28;2099312;28;46404;-66
2024/03/24 04:37:28;;;;;;;;;0.00;0.00;;;;;9.10;100.00;100664.44;2103400;27;46180;-65
2024/03/24 04:38:28;;;;;;;;;2.00;2.00;;;;;9.10;100.00;100673.25;2104811;27;46428;-66
2024/03/24 04:39:29;;;;;;;;;1.00;1.00;;;;;9.10;100.00;100667.06;2101872;27;46284;-65
2024/03/24 04:40:29;;;;;;;;;1.00;1.00;;;;;9.11;100.00;100669.69;2101699;28;46591;-66
2024/03/24 04:41:30;;;;;;;;;1.00;1.00;;;;;9.12;100.00;100665.28;2101754;28;46742;-66